Time;durP1;ratioP1;P1;durP2;ratioP2;P2;SDS_P1;SDS_P2;PMS_P1;PMS_P2;Temp;Humidity;BMP_temperature;BMP_pressure;BME280_temperature;BME280_humidity;BME280_pressure;Samples;Min_cycle;Max_cycle;Signal;HPM_P1;HPM_P2
2022/10/06 00:00:16;;;;;;;;;;;;;;;28.07;29.83;102012.19;5057835;28;1156;-45
2022/10/06 00:02:42;;;;;;;;;;;;;;;28.42;29.47;102015.81;5057864;28;1155;-47
2022/10/06 00:05:07;;;;;;;;;;;;;;;28.32;29.07;102015.91;5054019;28;1135;-43
2022/10/06 00:07:33;;;;;;;;;;;;;;;27.92;29.00;102012.78;5057365;28;1136;-44
2022/10/06 00:09:58;;;;;;;;;;;;;;;27.83;29.48;102006.47;5057142;28;1143;-45
2022/10/06 00:12:23;;;;;;;;;;;;;;;27.79;29.32;102009.63;5057091;28;1352;-44
2022/10/06 00:14:49;;;;;;;;;;;;;;;27.73;29.35;102006.56;5057694;28;1159;-44
2022/10/06 00:17:14;;;;;;;;;;;;;;;27.67;29.74;102009.00;5057147;28;1910;-46
2022/10/06 00:19:39;;;;;;;;;;;;;;;27.65;29.54;102011.00;5056884;28;1207;-43
2022/10/06 00:22:04;;;;;;;;;;;;;;;27.64;29.54;102004.75;5057140;28;1155;-43
2022/10/06 00:24:31;;;;;;;;;;;;;;;27.62;29.54;102009.47;5057463;28;1187;-44
2022/10/06 00:26:56;;;;;;;;;;;;;;;27.57;29.83;101999.13;5057197;28;1179;-46
2022/10/06 00:29:21;;;;;;;;;;;;;;;27.65;29.93;102003.75;5047862;28;1175;-44
2022/10/06 00:31:46;;;;;;;;;;;;;;;27.63;29.61;101994.94;5057344;28;1164;-44
2022/10/06 00:34:12;;;;;;;;;;;;;;;27.58;29.71;101999.97;5056571;28;1186;-42
2022/10/06 00:36:37;;;;;;;;;;;;;;;27.58;29.80;101995.41;5057008;28;1898;-46
2022/10/06 00:39:02;;;;;;;;;;;;;;;27.62;29.66;101998.66;5056849;28;1343;-44
2022/10/06 00:41:28;;;;;;;;;;;;;;;28.04;29.86;102004.41;5048845;28;1218;-44
2022/10/06 00:43:55;;;;;;;;;;;;;;;28.23;29.42;102004.19;5057060;28;1167;-47
2022/10/06 00:46:40;;;;;;;;;;;;;;;28.25;29.14;102006.72;5056622;28;1230;-48
2022/10/06 00:49:16;;;;;;;;;;;;;;;28.42;28.94;102007.72;5079999;28;1134;-45
2022/10/06 00:51:44;;;;;;;;;;;;;;;27.72;30.14;102001.31;5055651;28;1221;-45
2022/10/06 00:54:10;;;;;;;;;;;;;;;27.83;29.39;102005.59;5084492;28;877;-45
2022/10/06 00:56:36;;;;;;;;;;;;;;;27.89;29.30;102005.00;5056540;28;1116;-46
2022/10/06 00:59:02;;;;;;;;;;;;;;;28.46;28.96;101998.25;5081130;28;1897;-43
2022/10/06 01:01:27;;;;;;;;;;;;;;;28.18;28.58;102005.66;5050697;28;1144;-47
2022/10/06 01:03:54;;;;;;;;;;;;;;;28.01;28.80;102000.16;5056655;28;1238;-44
2022/10/06 01:06:19;;;;;;;;;;;;;;;27.96;29.27;101997.09;5082068;28;899;-47
2022/10/06 01:08:45;;;;;;;;;;;;;;;27.90;29.23;102000.41;5056197;28;1166;-46
2022/10/06 01:11:12;;;;;;;;;;;;;;;27.80;29.34;101995.09;5082476;28;1181;-45
2022/10/06 01:13:37;;;;;;;;;;;;;;;27.77;29.04;101988.16;5049250;28;1179;-44
2022/10/06 01:16:04;;;;;;;;;;;;;;;27.72;29.46;101990.50;5074550;28;1222;-45
2022/10/06 01:18:30;;;;;;;;;;;;;;;28.26;29.23;101985.94;5082740;28;1946;-44
2022/10/06 01:21:04;;;;;;;;;;;;;;;28.64;28.55;101981.06;5055845;28;1237;-46
2022/10/06 01:23:30;;;;;;;;;;;;;;;28.86;28.24;101978.78;5079200;28;1151;-44
2022/10/06 01:25:55;;;;;;;;;;;;;;;28.25;28.53;101979.69;5084015;28;1108;-45
2022/10/06 01:28:20;;;;;;;;;;;;;;;28.05;28.88;101973.63;5056431;28;1187;-46
2022/10/06 01:30:51;;;;;;;;;;;;;;;27.95;28.94;101980.00;5084446;28;896;-47
2022/10/06 01:33:17;;;;;;;;;;;;;;;28.60;28.56;101980.56;5081824;28;1032;-44
2022/10/06 01:35:43;;;;;;;;;;;;;;;28.52;28.21;101975.09;5048471;28;1188;-46
2022/10/06 01:38:08;;;;;;;;;;;;;;;28.13;28.46;101975.56;5074450;28;1963;-44
2022/10/06 01:40:34;;;;;;;;;;;;;;;28.01;28.69;101970.41;5055578;28;1230;-47
2022/10/06 01:42:59;;;;;;;;;;;;;;;28.20;29.40;101961.22;5055215;28;942;-46
2022/10/06 01:45:24;;;;;;;;;;;;;;;28.65;28.73;101977.34;5055864;28;1159;-46
2022/10/06 01:47:50;;;;;;;;;;;;;;;28.85;28.29;101971.66;5055859;28;1107;-47
2022/10/06 01:50:15;;;;;;;;;;;;;;;28.44;28.18;101972.34;5056257;28;1151;-45
2022/10/06 01:52:41;;;;;;;;;;;;;;;28.16;28.54;101972.53;5055797;28;1131;-43
2022/10/06 01:55:06;;;;;;;;;;;;;;;28.04;28.54;101964.69;5055774;28;876;-45
2022/10/06 01:57:37;;;;;;;;;;;;;;;28.54;28.69;101969.53;5055941;28;1906;-46
2022/10/06 02:00:02;;;;;;;;;;;;;;;28.82;28.27;101963.84;5056025;28;1167;-46
2022/10/06 02:02:29;;;;;;;;;;;;;;;28.59;27.78;101965.28;5057173;28;1115;-42
2022/10/06 02:04:54;;;;;;;;;;;;;;;28.21;28.54;101968.31;5059999;28;1222;-44
2022/10/06 02:07:19;;;;;;;;;;;;;;;28.16;28.69;101970.66;5059715;28;969;-45
2022/10/06 02:09:45;;;;;;;;;;;;;;;28.64;28.45;101963.97;5059793;28;1128;-48
2022/10/06 02:12:10;;;;;;;;;;;;;;;28.89;28.13;101956.78;5059315;28;1308;-43
2022/10/06 02:14:36;;;;;;;;;;;;;;;28.51;27.90;101962.56;5059872;28;1150;-45
2022/10/06 02:17:01;;;;;;;;;;;;;;;28.24;28.49;101957.16;5059555;28;1926;-47
2022/10/06 02:19:27;;;;;;;;;;;;;;;28.15;28.71;101962.69;5045041;28;894;-44
2022/10/06 02:21:52;;;;;;;;;;;;;;;28.70;28.54;101960.59;5060227;28;1199;-46
2022/10/06 02:24:17;;;;;;;;;;;;;;;29.05;28.08;101952.41;5059281;28;1131;-44
2022/10/06 02:26:43;;;;;;;;;;;;;;;29.05;28.00;101947.84;5059630;28;1182;-47
2022/10/06 02:29:08;;;;;;;;;;;;;;;28.44;27.79;101943.44;5059540;28;1103;-45
2022/10/06 02:31:33;;;;;;;;;;;;;;;28.30;28.28;101952.13;5059137;28;1037;-44
2022/10/06 02:33:59;;;;;;;;;;;;;;;28.16;28.62;101945.47;5059305;28;1151;-42
2022/10/06 02:36:24;;;;;;;;;;;;;;;28.73;28.33;101939.47;5059391;28;1246;-43
2022/10/06 02:38:49;;;;;;;;;;;;;;;29.00;27.85;101941.22;5059410;28;1967;-43
2022/10/06 02:41:14;;;;;;;;;;;;;;;28.71;27.88;101944.19;5058930;28;1281;-44
2022/10/06 02:43:40;;;;;;;;;;;;;;;28.36;27.98;101946.13;5059295;28;992;-46
2022/10/06 02:46:06;;;;;;;;;;;;;;;28.23;28.44;101941.97;5059070;28;1182;-46
2022/10/06 02:48:32;;;;;;;;;;;;;;;28.84;28.35;101946.41;5059216;28;1190;-45
2022/10/06 02:51:06;;;;;;;;;;;;;;;29.11;27.73;101940.94;5091896;28;1233;-46
2022/10/06 02:53:32;;;;;;;;;;;;;;;28.95;27.76;101936.28;5058332;28;1139;-45
2022/10/06 02:56:07;;;;;;;;;;;;;;;28.42;28.16;101942.75;5058793;28;1470;-44
2022/10/06 02:58:32;;;;;;;;;;;;;;;28.30;28.38;101942.16;5058941;28;1976;-44
2022/10/06 03:01:01;;;;;;;;;;;;;;;28.54;28.86;101935.19;5058703;28;1166;-46
2022/10/06 03:03:26;;;;;;;;;;;;;;;29.03;28.10;101933.63;5058447;28;1163;-45
2022/10/06 03:06:05;;;;;;;;;;;;;;;29.24;27.90;101931.44;5058163;28;1111;-45
2022/10/06 03:08:30;;;;;;;;;;;;;;;28.52;28.17;101937.22;5058850;28;1175;-44
2022/10/06 03:11:02;;;;;;;;;;;;;;;28.35;28.15;101942.56;5058586;28;1520;-45
2022/10/06 03:13:28;;;;;;;;;;;;;;;27.61;26.11;101945.63;5057688;28;1167;-47
2022/10/06 03:15:53;;;;;;;;;;;;;;;26.62;27.25;101936.38;5058230;28;1096;-45
2022/10/06 03:18:19;;;;;;;;;;;;;;;26.00;27.23;101937.75;5058366;28;1891;-49
2022/10/06 03:20:44;;;;;;;;;;;;;;;25.72;27.13;101943.06;5058651;28;1234;-47
2022/10/06 03:23:09;;;;;;;;;;;;;;;25.84;27.35;101943.72;5058073;28;1207;-48
2022/10/06 03:25:34;;;;;;;;;;;;;;;25.51;26.79;101941.34;5058285;28;1190;-47
2022/10/06 03:28:00;;;;;;;;;;;;;;;25.45;27.68;101941.91;5058288;28;1182;-44
2022/10/06 03:30:25;;;;;;;;;;;;;;;25.49;27.67;101943.31;5057847;28;1115;-46
2022/10/06 03:32:51;;;;;;;;;;;;;;;25.66;27.81;101949.00;5055787;28;1159;-45
2022/10/06 03:35:16;;;;;;;;;;;;;;;25.37;27.34;101945.34;5047248;28;1179;-46
2022/10/06 03:37:41;;;;;;;;;;;;;;;25.28;27.39;101944.31;5057990;28;1951;-46
2022/10/06 03:40:07;;;;;;;;;;;;;;;25.00;27.71;101946.00;5058011;28;1183;-45
2022/10/06 03:42:32;;;;;;;;;;;;;;;24.55;28.40;101950.81;5057943;28;1159;-44
2022/10/06 03:44:57;;;;;;;;;;;;;;;24.95;28.79;101951.81;5057570;28;1119;-46
2022/10/06 03:47:22;;;;;;;;;;;;;;;26.56;26.31;101955.03;5058139;28;1163;-44
2022/10/06 03:49:48;;;;;;;;;;;;;;;27.16;25.07;101952.81;5057499;28;1195;-44
2022/10/06 03:52:13;;;;;;;;;;;;;;;26.14;26.69;101955.28;5058149;28;1206;-48
2022/10/06 03:54:38;;;;;;;;;;;;;;;24.65;28.14;101950.84;5056095;28;1311;-41
2022/10/06 03:57:04;;;;;;;;;;;;;;;26.00;27.29;101956.63;5054326;28;1906;-45
2022/10/06 03:59:32;;;;;;;;;;;;;;;26.92;25.65;101960.50;5057508;28;1079;-40
2022/10/06 04:01:58;;;;;;;;;;;;;;;27.30;25.24;101967.63;5056111;28;1274;-41
2022/10/06 04:04:23;;;;;;;;;;;;;;;27.50;24.92;101961.06;5058146;28;1083;-41
2022/10/06 04:06:48;;;;;;;;;;;;;;;27.68;24.74;101954.81;5055149;28;1346;-42
2022/10/06 04:09:14;;;;;;;;;;;;;;;27.51;24.57;101961.91;5057535;28;961;-42
2022/10/06 04:11:39;;;;;;;;;;;;;;;26.55;26.55;101953.31;5057148;28;1207;-44
2022/10/06 04:14:05;;;;;;;;;;;;;;;26.17;26.93;101957.69;5056914;28;1208;-44
2022/10/06 04:16:37;;;;;;;;;;;;;;;25.91;27.47;101952.06;5044307;28;1235;-41
2022/10/06 04:19:06;;;;;;;;;;;;;;;25.98;27.39;101955.91;5055760;28;1910;-40
2022/10/06 04:21:35;;;;;;;;;;;;;;;25.89;27.81;101951.41;5057450;28;1211;-41
2022/10/06 04:24:00;;;;;;;;;;;;;;;25.75;27.59;101956.25;5057539;28;1226;-40
2022/10/06 04:26:29;;;;;;;;;;;;;;;25.71;27.86;101960.22;5056562;28;1147;-41
2022/10/06 04:28:54;;;;;;;;;;;;;;;25.73;27.73;101958.22;5054103;28;1539;-40
2022/10/06 04:31:21;;;;;;;;;;;;;;;26.01;28.70;101957.44;5089135;28;1079;-40
2022/10/06 04:33:49;;;;;;;;;;;;;;;26.48;27.34;101961.16;5053417;28;1071;-40
2022/10/06 04:36:15;;;;;;;;;;;;;;;26.67;27.75;101965.63;5057529;28;1115;-42
2022/10/06 04:38:41;;;;;;;;;;;;;;;26.82;27.40;101959.69;5056944;28;1985;-42
2022/10/06 04:41:12;;;;;;;;;;;;;;;26.57;28.44;101957.56;5057493;28;1202;-42
2022/10/06 04:43:38;;;;;;;;;;;;;;;26.43;29.46;101966.13;5057114;28;1171;-43
2022/10/06 04:46:03;;;;;;;;;;;;;;;26.44;29.37;101960.63;5057069;28;1119;-42
2022/10/06 04:48:28;;;;;;;;;;;;;;;26.95;28.64;101962.88;5057017;28;1207;-45
2022/10/06 04:51:03;;;;;;;;;;;;;;;26.82;29.75;101971.34;5057135;28;1179;-43
2022/10/06 04:53:29;;;;;;;;;;;;;;;26.71;30.23;101972.41;5056672;28;1131;-45
2022/10/06 04:55:59;;;;;;;;;;;;;;;26.68;30.28;101966.44;5089152;28;844;-41
2022/10/06 04:58:24;;;;;;;;;;;;;;;26.86;30.18;101970.03;5054310;28;1902;-43
2022/10/06 05:00:50;;;;;;;;;;;;;;;27.54;28.86;101971.56;5054622;28;1369;-43
2022/10/06 05:03:15;;;;;;;;;;;;;;;27.58;29.08;101973.78;5048897;28;1512;-42
2022/10/06 05:05:40;;;;;;;;;;;;;;;27.14;29.84;101967.31;5057192;28;1043;-42
2022/10/06 05:08:05;;;;;;;;;;;;;;;26.88;29.85;101962.63;5055986;28;1095;-43
2022/10/06 05:10:31;;;;;;;;;;;;;;;26.88;30.44;101964.47;5052053;28;1421;-40
2022/10/06 05:12:56;;;;;;;;;;;;;;;27.31;30.06;101974.75;5056675;28;1092;-40
2022/10/06 05:15:21;;;;;;;;;;;;;;;27.68;29.37;101976.44;5056475;28;1151;-43
2022/10/06 05:17:47;;;;;;;;;;;;;;;27.29;30.42;101972.22;5056349;28;2333;-43
2022/10/06 05:20:12;;;;;;;;;;;;;;;27.17;30.83;101973.41;5056252;28;894;-42
2022/10/06 05:22:37;;;;;;;;;;;;;;;27.12;31.03;101976.59;5056158;28;1135;-41
2022/10/06 05:25:03;;;;;;;;;;;;;;;27.07;31.03;101976.19;5056729;28;1230;-41
2022/10/06 05:27:28;;;;;;;;;;;;;;;27.06;31.07;101982.59;5056589;28;1155;-41
2022/10/06 05:29:54;;;;;;;;;;;;;;;27.01;31.06;101978.50;5054863;28;1287;-41
2022/10/06 05:32:19;;;;;;;;;;;;;;;27.06;31.25;101978.03;5048846;28;1409;-42
2022/10/06 05:34:44;;;;;;;;;;;;;;;26.99;30.93;101976.94;5056356;28;1002;-42
2022/10/06 05:37:09;;;;;;;;;;;;;;;26.96;31.30;101978.06;5048576;28;1981;-39
2022/10/06 05:39:35;;;;;;;;;;;;;;;27.04;30.36;101980.06;5054878;28;993;-44
2022/10/06 05:42:00;;;;;;;;;;;;;;;27.04;29.92;101981.91;5056499;28;1119;-42
2022/10/06 05:44:25;;;;;;;;;;;;;;;27.06;30.32;101979.91;5055798;28;900;-44
2022/10/06 05:46:51;;;;;;;;;;;;;;;26.96;30.44;101978.06;5056369;28;1195;-43
2022/10/06 05:49:16;;;;;;;;;;;;;;;26.92;30.69;101975.84;5055692;28;1174;-43
2022/10/06 05:51:41;;;;;;;;;;;;;;;27.07;30.51;101982.47;5046515;28;1287;-43
2022/10/06 05:54:07;;;;;;;;;;;;;;;27.03;30.90;101986.44;5050373;28;1195;-43
2022/10/06 05:56:33;;;;;;;;;;;;;;;27.23;30.44;101995.28;5055415;28;1115;-43
2022/10/06 05:58:58;;;;;;;;;;;;;;;27.18;30.34;101988.63;5055929;28;1890;-50
2022/10/06 06:01:24;;;;;;;;;;;;;;;27.21;30.46;101988.34;5056452;28;1203;-42
2022/10/06 06:03:50;;;;;;;;;;;;;;;27.25;30.53;101989.72;5056279;28;1151;-41
2022/10/06 06:06:15;;;;;;;;;;;;;;;27.22;30.52;101987.31;5056259;28;1222;-43
2022/10/06 06:08:41;;;;;;;;;;;;;;;27.29;30.32;101982.16;5056090;28;865;-40
2022/10/06 06:11:06;;;;;;;;;;;;;;;27.28;30.49;101985.88;5055846;28;1079;-44
2022/10/06 06:13:32;;;;;;;;;;;;;;;27.35;31.20;101986.94;5055875;28;1171;-41
2022/10/06 06:16:00;;;;;;;;;;;;;;;27.39;30.16;101991.03;5047543;28;1559;-43
2022/10/06 06:18:26;;;;;;;;;;;;;;;27.47;29.65;101988.41;5046370;28;1906;-42
2022/10/06 06:20:58;;;;;;;;;;;;;;;27.52;30.01;101996.03;5051020;28;1171;-46
2022/10/06 06:23:23;;;;;;;;;;;;;;;27.43;29.96;101996.97;5054334;28;1158;-43
2022/10/06 06:25:59;;;;;;;;;;;;;;;27.41;30.08;101991.72;5049618;28;1266;-43
2022/10/06 06:28:24;;;;;;;;;;;;;;;27.36;30.11;101984.06;5045313;28;1465;-43
2022/10/06 06:30:56;;;;;;;;;;;;;;;27.43;30.15;101987.00;5049853;28;1386;-42
2022/10/06 06:33:22;;;;;;;;;;;;;;;27.45;29.99;101984.16;5047630;28;1270;-44
2022/10/06 06:35:47;;;;;;;;;;;;;;;27.51;29.84;101978.97;5045811;28;1199;-46
2022/10/06 06:38:12;;;;;;;;;;;;;;;27.58;30.03;101983.75;5056031;28;1913;-43
2022/10/06 06:40:40;;;;;;;;;;;;;;;27.59;29.93;101983.59;5055708;28;1179;-45
2022/10/06 06:43:06;;;;;;;;;;;;;;;27.62;29.92;101986.00;5049601;28;1198;-43
2022/10/06 06:45:31;;;;;;;;;;;;;;;27.72;29.95;101990.50;5055679;28;1070;-43
2022/10/06 06:47:56;;;;;;;;;;;;;;;27.82;29.48;101988.53;5056779;28;1147;-41
2022/10/06 06:50:22;;;;;;;;;;;;;;;27.87;29.54;101996.19;5055234;28;1547;-39
2022/10/06 06:52:47;;;;;;;;;;;;;;;27.95;29.34;101989.97;5057195;28;1532;-41
2022/10/06 06:55:12;;;;;;;;;;;;;;;28.06;29.26;101999.69;5059381;28;1212;-43
2022/10/06 06:57:38;;;;;;;;;;;;;;;28.13;28.96;101994.50;5053176;28;1890;-41
2022/10/06 07:00:05;;;;;;;;;;;;;;;28.16;29.27;101995.00;5059319;28;1147;-41
2022/10/06 07:02:30;;;;;;;;;;;;;;;28.13;29.38;101992.63;5047753;28;949;-42
2022/10/06 07:04:55;;;;;;;;;;;;;;;28.18;29.22;101987.59;5059306;28;1135;-43
2022/10/06 07:07:20;;;;;;;;;;;;;;;28.28;28.90;101994.75;5059325;28;1151;-44
2022/10/06 07:09:46;;;;;;;;;;;;;;;28.27;29.12;101985.78;5057143;28;1472;-42
2022/10/06 07:12:11;;;;;;;;;;;;;;;28.34;28.85;101992.25;5057740;28;1253;-41
2022/10/06 07:25:05;;;;;;;;;;;;;;;28.44;28.84;101983.19;5052772;28;1496;-42
2022/10/06 07:25:33;;;;;;;;;;;;;;;28.66;28.64;101975.50;5054577;28;1457;-43
2022/10/06 07:27:58;;;;;;;;;;;;;;;28.85;28.42;101968.94;5057516;28;1334;-40
2022/10/06 07:30:25;;;;;;;;;;;;;;;28.88;28.31;101975.91;5052091;28;970;-42
2022/10/06 07:32:50;;;;;;;;;;;;;;;29.01;28.26;101964.63;5054119;28;1255;-42
2022/10/06 07:35:16;;;;;;;;;;;;;;;29.04;28.06;101973.25;5058635;28;1004;-43
2022/10/06 07:37:41;;;;;;;;;;;;;;;29.13;28.12;101965.16;5058679;28;1898;-42
2022/10/06 07:40:07;;;;;;;;;;;;;;;29.17;28.10;101967.34;5052448;28;1492;-40
2022/10/06 07:42:50;;;;;;;;;;;;;;;29.06;28.25;101965.78;5058166;28;1155;-44
2022/10/06 07:47:59;;;;;;;;;;;;;;;28.14;29.33;101967.28;5057990;28;1095;-44
2022/10/06 07:50:25;;;;;;;;;;;;;;;28.90;28.88;101966.59;5055232;28;1242;-43
2022/10/06 07:52:50;;;;;;;;;;;;;;;29.29;28.05;101959.75;5054762;28;1346;-41
2022/10/06 07:55:16;;;;;;;;;;;;;;;29.37;27.96;101963.44;5049226;28;1282;-41
2022/10/06 07:57:44;;;;;;;;;;;;;;;29.49;27.73;101959.41;5056312;28;1926;-42
2022/10/06 08:00:11;;;;;;;;;;;;;;;29.56;27.67;101959.56;5057706;28;1152;-43
2022/10/06 08:02:37;;;;;;;;;;;;;;;29.69;27.59;101961.78;5086362;28;1210;-42
2022/10/06 08:05:03;;;;;;;;;;;;;;;29.79;27.18;101957.03;5045791;28;1394;-44
2022/10/06 08:07:28;;;;;;;;;;;;;;;29.73;27.23;101956.88;5057224;28;984;-42
2022/10/06 08:09:53;;;;;;;;;;;;;;;29.93;27.29;101962.75;5053941;28;1211;-41
2022/10/06 08:12:36;;;;;;;;;;;;;;;30.00;27.03;101962.91;5051945;28;1178;-45
2022/10/06 08:15:02;;;;;;;;;;;;;;;30.06;26.77;101949.50;5048800;28;1402;-42
2022/10/06 08:17:28;;;;;;;;;;;;;;;30.20;26.63;101952.53;5048681;28;1965;-44
2022/10/06 08:19:53;;;;;;;;;;;;;;;29.74;27.24;101951.28;5049599;28;993;-44
2022/10/06 08:22:20;;;;;;;;;;;;;;;28.95;28.69;101949.84;5056850;28;1139;-44
2022/10/06 08:24:45;;;;;;;;;;;;;;;28.86;28.95;101954.41;5054690;28;1515;-43
2022/10/06 08:27:10;;;;;;;;;;;;;;;28.82;29.06;101937.63;5057293;28;1543;-44
2022/10/06 08:29:35;;;;;;;;;;;;;;;28.86;29.22;101932.75;5057543;28;1147;-42
2022/10/06 08:32:01;;;;;;;;;;;;;;;28.55;28.34;101933.31;5057254;28;1139;-44
2022/10/06 08:34:27;;;;;;;;;;;;;;;28.46;28.32;101933.28;5046720;28;1539;-41
2022/10/06 08:36:52;;;;;;;;;;;;;;;28.28;27.97;101929.81;5052599;28;1429;-40
2022/10/06 08:39:18;;;;;;;;;;;;;;;27.99;28.32;101930.00;5049303;28;1890;-42
2022/10/06 08:41:49;;;;;;;;;;;;;;;28.19;28.26;101927.06;5057106;28;1147;-42
2022/10/06 08:44:18;;;;;;;;;;;;;;;28.51;28.47;101927.38;5057278;28;1079;-43
2022/10/06 08:47:03;;;;;;;;;;;;;;;28.70;28.77;101925.41;5055569;28;1124;-42
2022/10/06 08:49:47;;;;;;;;;;;;;;;28.74;28.21;101921.38;5056953;28;1132;-41
2022/10/06 08:52:15;;;;;;;;;;;;;;;28.75;28.36;101919.50;5077185;28;1135;-41
2022/10/06 08:55:10;;;;;;;;;;;;;;;28.81;28.27;101922.38;5053388;28;1271;-43
2022/10/06 08:57:40;;;;;;;;;;;;;;;28.84;28.35;101921.22;5042284;28;1894;-41
2022/10/06 09:00:12;;;;;;;;;;;;;;;29.02;28.20;101914.84;5082133;28;1245;-42
2022/10/06 09:02:40;;;;;;;;;;;;;;;28.88;28.52;101911.72;5089380;28;1159;-42
2022/10/06 09:05:05;;;;;;;;;;;;;;;28.95;28.39;101907.34;5082619;28;1535;-42
2022/10/06 09:07:39;;;;;;;;;;;;;;;29.04;28.53;101902.81;5051673;28;1302;-43
2022/10/06 09:10:05;;;;;;;;;;;;;;;29.11;28.27;101905.72;5052207;28;920;-42
2022/10/06 09:12:41;;;;;;;;;;;;;;;29.17;28.45;101909.59;5055292;28;1100;-42
2022/10/06 09:15:24;;;;;;;;;;;;;;;29.27;28.06;101913.00;5056770;28;1123;-42
2022/10/06 09:17:53;;;;;;;;;;;;;;;29.28;28.17;101913.84;5056563;28;1962;-42
2022/10/06 09:20:19;;;;;;;;;;;;;;;29.32;28.15;101912.47;5057062;28;1198;-40
2022/10/06 09:22:45;;;;;;;;;;;;;;;29.42;28.14;101912.28;5056403;28;987;-43
2022/10/06 09:25:15;;;;;;;;;;;;;;;29.36;28.03;101908.41;5088751;28;1139;-40
2022/10/06 09:27:40;;;;;;;;;;;;;;;29.34;28.26;101903.13;5056431;28;1139;-41
2022/10/06 09:30:07;;;;;;;;;;;;;;;29.60;27.83;101919.41;5088869;28;1100;-42
2022/10/06 09:32:33;;;;;;;;;;;;;;;29.54;27.92;101912.81;5088538;28;1202;-42
2022/10/06 09:34:58;;;;;;;;;;;;;;;29.68;27.68;101911.25;5055078;28;1127;-41
2022/10/06 09:37:24;;;;;;;;;;;;;;;29.68;27.66;101912.13;5047166;28;1963;-40
2022/10/06 09:39:49;;;;;;;;;;;;;;;29.84;27.55;101913.13;5052407;28;1160;-42
2022/10/06 09:42:25;;;;;;;;;;;;;;;29.77;27.70;101901.25;5088651;28;1099;-43
2022/10/06 09:45:04;;;;;;;;;;;;;;;29.86;27.62;101905.66;5088760;28;1181;-42
2022/10/06 09:47:34;;;;;;;;;;;;;;;29.91;27.37;101908.66;5054756;28;1179;-46
2022/10/06 09:50:05;;;;;;;;;;;;;;;30.10;27.20;101909.28;5047365;28;1414;-43
2022/10/06 09:52:30;;;;;;;;;;;;;;;29.84;27.50;101904.97;5056386;28;1052;-42
2022/10/06 09:55:03;;;;;;;;;;;;;;;29.91;27.57;101905.94;5055218;28;1211;-44
2022/10/06 09:57:30;;;;;;;;;;;;;;;29.80;27.64;101901.75;5080775;28;1898;-42
2022/10/06 09:59:57;;;;;;;;;;;;;;;30.17;27.34;101902.16;5041643;28;903;-42
2022/10/06 10:02:25;;;;;;;;;;;;;;;30.24;27.14;101904.19;5055798;28;1202;-42
2022/10/06 10:04:52;;;;;;;;;;;;;;;30.33;27.18;101896.84;5056019;28;1131;-40
2022/10/06 10:07:23;;;;;;;;;;;;;;;30.26;27.29;101902.16;5055787;28;1178;-42
2022/10/06 10:09:49;;;;;;;;;;;;;;;30.39;27.08;101891.56;5055824;28;845;-44
2022/10/06 10:12:26;;;;;;;;;;;;;;;30.36;27.12;101891.94;5055816;28;1155;-41
2022/10/06 10:14:56;;;;;;;;;;;;;;;30.51;26.79;101885.72;5077153;28;1111;-42
2022/10/06 10:17:23;;;;;;;;;;;;;;;30.60;26.83;101891.94;5068124;28;1910;-42
2022/10/06 10:19:52;;;;;;;;;;;;;;;30.67;26.73;101887.47;5036418;28;1291;-43
2022/10/06 10:22:22;;;;;;;;;;;;;;;30.65;26.80;101889.53;5047287;28;1429;-41
2022/10/06 10:24:52;;;;;;;;;;;;;;;30.65;26.83;101884.09;5044995;28;1081;-41
2022/10/06 10:27:40;;;;;;;;;;;;;;;30.64;26.76;101882.41;5054934;28;1582;-44
2022/10/06 10:30:09;;;;;;;;;;;;;;;30.81;26.70;101885.06;5051790;28;1510;-45
2022/10/06 10:32:49;;;;;;;;;;;;;;;30.67;26.97;101877.47;5052554;28;1351;-42
2022/10/06 10:35:19;;;;;;;;;;;;;;;30.63;26.88;101876.13;5087416;28;1198;-42
2022/10/06 10:37:50;;;;;;;;;;;;;;;30.71;26.68;101885.25;5054189;28;1907;-42
2022/10/06 10:40:35;;;;;;;;;;;;;;;30.75;26.71;101879.28;5059282;28;977;-42
2022/10/06 10:43:03;;;;;;;;;;;;;;;30.68;26.94;101875.59;5092300;28;1201;-42
2022/10/06 10:45:35;;;;;;;;;;;;;;;30.75;26.85;101878.44;5059472;28;1214;-41
2022/10/06 10:48:03;;;;;;;;;;;;;;;30.86;26.55;101864.47;5059152;28;1135;-44
2022/10/06 10:50:31;;;;;;;;;;;;;;;30.90;26.88;101870.38;5091829;28;1214;-44
2022/10/06 10:53:19;;;;;;;;;;;;;;;30.90;26.45;101865.78;5057934;28;1231;-43
2022/10/06 10:55:46;;;;;;;;;;;;;;;30.94;26.24;101865.44;5037987;28;1116;-41
2022/10/06 10:58:20;;;;;;;;;;;;;;;30.03;20.74;101856.78;5090710;28;1882;-48
2022/10/06 11:00:47;;;;;;;;;;;;;;;30.33;23.67;101856.13;5053216;28;1198;-49
2022/10/06 11:03:13;;;;;;;;;;;;;;;30.22;24.82;101860.09;5056563;28;1447;-55
2022/10/06 11:05:57;;;;;;;;;;;;;;;30.42;23.89;101850.47;5058985;28;1136;-59
2022/10/06 11:08:25;;;;;;;;;;;;;;;29.97;22.04;101843.88;5059025;28;1131;-52
2022/10/06 11:10:58;;;;;;;;;;;;;;;30.52;22.21;101844.81;5057171;28;1288;-51
2022/10/06 11:13:26;;;;;;;;;;;;;;;30.66;23.12;101839.63;5053503;28;1177;-52
2022/10/06 11:16:10;;;;;;;;;;;;;;;30.94;21.65;101838.25;5055667;28;1214;-43
2022/10/06 11:18:42;;;;;;;;;;;;;;;30.96;19.45;101834.34;5054214;28;1961;-59
2022/10/06 11:21:14;;;;;;;;;;;;;;;31.02;21.19;101827.31;5055056;28;1390;-58
2022/10/06 11:23:45;;;;;;;;;;;;;;;31.14;19.86;101831.28;5057485;28;1278;-52
2022/10/06 11:26:11;;;;;;;;;;;;;;;31.00;21.65;101824.78;5048072;28;1206;-54
2022/10/06 11:28:36;;;;;;;;;;;;;;;30.66;20.14;101826.06;5058600;28;1179;-48
2022/10/06 11:31:07;;;;;;;;;;;;;;;30.28;19.16;101824.13;5056747;28;1381;-45
2022/10/06 11:33:33;;;;;;;;;;;;;;;30.37;19.94;101814.88;5045712;28;1251;-45
2022/10/06 11:35:58;;;;;;;;;;;;;;;30.84;20.74;101814.06;5049663;28;1298;-51
2022/10/06 11:38:44;;;;;;;;;;;;;;;31.07;21.76;101813.16;5051497;28;1975;-47
2022/10/06 11:41:17;;;;;;;;;;;;;;;31.22;21.88;101827.63;5047869;28;1344;-45
2022/10/06 11:44:09;;;;;;;;;;;;;;;31.41;21.82;101822.72;5052217;28;1198;-44
2022/10/06 11:46:36;;;;;;;;;;;;;;;31.68;22.05;101814.09;5056807;28;1232;-41
2022/10/06 11:49:19;;;;;;;;;;;;;;;31.56;22.38;101817.28;5090384;28;1154;-51
2022/10/06 11:51:45;;;;;;;;;;;;;;;31.63;22.68;101812.78;5057954;28;1199;-42
2022/10/06 11:54:33;;;;;;;;;;;;;;;31.46;22.39;101809.41;5058277;28;1128;-45
2022/10/06 11:56:58;;;;;;;;;;;;;;;31.35;22.82;101805.25;5055390;28;1147;-45
2022/10/06 11:59:25;;;;;;;;;;;;;;;31.27;23.12;101808.91;5058004;28;1964;-43
2022/10/06 12:01:50;;;;;;;;;;;;;;;31.17;23.57;101811.03;5057837;28;1080;-48
2022/10/06 12:04:16;;;;;;;;;;;;;;;31.15;23.76;101808.50;5058328;28;1151;-46
2022/10/06 12:06:50;;;;;;;;;;;;;;;31.15;24.65;101800.34;5090542;28;1115;-55
2022/10/06 12:09:27;;;;;;;;;;;;;;;30.91;24.16;101799.56;5057633;28;1139;-45
2022/10/06 12:12:10;;;;;;;;;;;;;;;30.40;25.07;101802.81;5056652;28;1297;-47
2022/10/06 12:14:43;;;;;;;;;;;;;;;30.35;25.17;101797.91;5048593;28;1300;-47
2022/10/06 12:17:20;;;;;;;;;;;;;;;30.21;25.41;101787.84;5057867;28;2038;-47
2022/10/06 12:20:08;;;;;;;;;;;;;;;30.24;25.57;101795.63;5051990;28;1508;-48
2022/10/06 12:22:45;;;;;;;;;;;;;;;29.99;25.80;101795.72;5049946;28;1440;-52
2022/10/06 12:25:29;;;;;;;;;;;;;;;29.96;26.02;101796.94;5054130;28;1339;-49
2022/10/06 12:27:54;;;;;;;;;;;;;;;29.75;26.27;101795.66;5055210;28;1279;-49
2022/10/06 12:30:23;;;;;;;;;;;;;;;29.84;26.26;101792.91;5054976;28;1566;-51
2022/10/06 12:32:51;;;;;;;;;;;;;;;29.73;26.51;101797.69;5055260;28;1042;-44
2022/10/06 12:35:22;;;;;;;;;;;;;;;29.63;26.49;101789.78;5057275;28;912;-46
2022/10/06 12:37:51;;;;;;;;;;;;;;;29.50;26.72;101790.28;5057196;28;1957;-43
2022/10/06 12:40:36;;;;;;;;;;;;;;;29.46;26.88;101791.69;5057588;28;1229;-43
2022/10/06 12:43:13;;;;;;;;;;;;;;;29.41;27.10;101794.88;5055703;28;1308;-42
2022/10/06 12:46:06;;;;;;;;;;;;;;;29.34;27.13;101781.19;5056973;28;967;-45
2022/10/06 12:48:50;;;;;;;;;;;;;;;29.25;27.42;101787.66;5042354;28;1698;-44
2022/10/06 12:51:17;;;;;;;;;;;;;;;29.16;27.36;101783.28;5056769;28;1016;-45
2022/10/06 12:53:51;;;;;;;;;;;;;;;29.19;27.58;101783.78;5056562;28;1143;-45
2022/10/06 12:56:45;;;;;;;;;;;;;;;29.04;27.84;101780.06;5056874;28;957;-44
2022/10/06 12:59:23;;;;;;;;;;;;;;;29.05;27.80;101774.47;5051659;28;1953;-46
2022/10/06 13:01:49;;;;;;;;;;;;;;;29.00;27.69;101776.00;5056574;28;1352;-46
2022/10/06 13:04:29;;;;;;;;;;;;;;;28.96;27.98;101778.19;5088708;28;902;-45